Time;durP1;ratioP1;P1;durP2;ratioP2;P2;SDS_P1;SDS_P2;PMS_P1;PMS_P2;Temp;Humidity;BMP_temperature;BMP_pressure;BME280_temperature;BME280_humidity;BME280_pressure;Samples;Min_cycle;Max_cycle;Signal;HPM_P1;HPM_P2
2021/05/29 00:02:12;;;;;;;484.20;322.30;;;;;;;;;;4976841;28;20143;-79
2021/05/29 00:04:38;;;;;;;486.30;322.50;;;;;;;;;;4986126;28;20453;-78
2021/05/29 00:07:04;;;;;;;487.58;322.42;;;;;;;;;;4997410;28;20043;-80
2021/05/29 00:09:30;;;;;;;490.20;323.58;;;;;;;;;;5002275;28;20054;-78
2021/05/29 00:11:56;;;;;;;483.52;317.77;;;;;;;;;;4997343;28;20401;-79
2021/05/29 00:14:22;;;;;;;485.17;316.23;;;;;;;;;;4975966;28;20031;-79
2021/05/29 00:16:49;;;;;;;489.75;320.95;;;;;;;;;;4978437;28;20034;-80
2021/05/29 00:19:15;;;;;;;494.85;329.33;;;;;;;;;;4984510;28;20027;-79
2021/05/29 00:21:41;;;;;;;487.00;317.13;;;;;;;;;;4979260;28;20131;-79
2021/05/29 00:24:07;;;;;;;490.92;318.58;;;;;;;;;;4976178;28;20045;-78
2021/05/29 00:26:33;;;;;;;487.75;318.27;;;;;;;;;;4984011;28;20539;-79
2021/05/29 00:28:59;;;;;;;489.38;319.20;;;;;;;;;;4985600;28;20030;-79
2021/05/29 00:31:25;;;;;;;482.10;316.58;;;;;;;;;;5002591;28;20029;-79
2021/05/29 00:33:51;;;;;;;484.45;314.33;;;;;;;;;;4980476;28;20065;-78
2021/05/29 00:36:17;;;;;;;481.20;314.30;;;;;;;;;;4996896;28;20091;-78
2021/05/29 00:38:48;;;;;;;485.00;319.10;;;;;;;;;;4989632;28;20025;-78
2021/05/29 00:41:15;;;;;;;487.48;319.85;;;;;;;;;;4993777;28;20029;-78
2021/05/29 00:43:41;;;;;;;486.90;321.25;;;;;;;;;;4989287;28;20033;-79
2021/05/29 00:46:07;;;;;;;487.80;319.27;;;;;;;;;;4998055;28;20022;-77
2021/05/29 00:48:34;;;;;;;485.77;311.17;;;;;;;;;;4984515;28;20030;-77
2021/05/29 00:50:59;;;;;;;488.17;313.75;;;;;;;;;;4987952;28;20019;-78
2021/05/29 00:53:30;;;;;;;496.92;326.50;;;;;;;;;;4981801;28;20034;-79
2021/05/29 00:55:56;;;;;;;493.98;316.52;;;;;;;;;;4987950;28;20033;-77
2021/05/29 00:58:22;;;;;;;486.83;315.65;;;;;;;;;;4984003;28;20025;-78
2021/05/29 01:00:49;;;;;;;491.05;313.63;;;;;;;;;;4981429;28;20019;-79
2021/05/29 01:03:15;;;;;;;486.90;313.13;;;;;;;;;;4988464;28;20263;-77
2021/05/29 01:05:42;;;;;;;490.98;315.40;;;;;;;;;;4990102;28;20065;-77
2021/05/29 01:08:08;;;;;;;492.92;314.67;;;;;;;;;;4984238;28;20022;-77
2021/05/29 01:10:34;;;;;;;492.80;310.08;;;;;;;;;;4980566;28;20480;-77
2021/05/29 01:13:02;;;;;;;498.58;311.98;;;;;;;;;;4982016;28;20083;-76
2021/05/29 01:15:35;;;;;;;490.30;307.25;;;;;;;;;;4984073;28;20022;-76
2021/05/29 01:18:02;;;;;;;498.38;314.83;;;;;;;;;;4980821;28;20022;-77
2021/05/29 01:20:28;;;;;;;496.00;313.10;;;;;;;;;;4982069;28;20087;-76
2021/05/29 01:22:56;;;;;;;498.45;307.10;;;;;;;;;;4988103;28;20351;-80
2021/05/29 01:25:24;;;;;;;497.67;304.20;;;;;;;;;;4983330;28;20113;-77
2021/05/29 01:27:56;;;;;;;499.45;315.15;;;;;;;;;;4979607;28;20064;-75
2021/05/29 01:30:22;;;;;;;499.52;313.08;;;;;;;;;;4998430;28;20098;-78
2021/05/29 01:32:48;;;;;;;497.77;309.60;;;;;;;;;;4980081;28;20027;-76
2021/05/29 01:35:14;;;;;;;501.40;307.35;;;;;;;;;;4987483;28;20032;-77
2021/05/29 01:37:40;;;;;;;503.92;311.50;;;;;;;;;;4982038;28;20062;-76
2021/05/29 01:40:07;;;;;;;508.25;317.05;;;;;;;;;;5005222;28;20037;-77
2021/05/29 01:42:33;;;;;;;488.58;300.73;;;;;;;;;;4982168;28;20022;-76
2021/05/29 01:45:00;;;;;;;501.83;313.38;;;;;;;;;;4981055;28;20033;-77
2021/05/29 01:47:26;;;;;;;491.13;299.70;;;;;;;;;;5000837;28;20021;-76
2021/05/29 01:49:52;;;;;;;493.30;299.98;;;;;;;;;;4997727;28;20097;-78
2021/05/29 01:52:18;;;;;;;491.73;300.38;;;;;;;;;;4979676;28;20172;-76
2021/05/29 01:54:44;;;;;;;492.73;303.83;;;;;;;;;;4994966;28;20475;-75
2021/05/29 01:57:10;;;;;;;493.70;309.85;;;;;;;;;;4988765;28;20025;-75
2021/05/29 01:59:36;;;;;;;493.30;305.33;;;;;;;;;;4983882;28;20082;-77
2021/05/29 02:02:03;;;;;;;492.00;304.92;;;;;;;;;;4987904;28;20440;-78
2021/05/29 02:04:29;;;;;;;494.98;307.58;;;;;;;;;;4983223;28;20066;-77
2021/05/29 02:06:54;;;;;;;490.55;300.95;;;;;;;;;;4985141;28;20424;-75
2021/05/29 02:09:20;;;;;;;490.65;300.17;;;;;;;;;;4981203;28;20051;-77
2021/05/29 02:11:46;;;;;;;492.67;303.83;;;;;;;;;;4985088;28;20031;-77
2021/05/29 02:14:12;;;;;;;487.98;293.15;;;;;;;;;;4978824;28;20421;-76
2021/05/29 02:16:38;;;;;;;495.42;300.98;;;;;;;;;;4976425;28;20064;-78
2021/05/29 02:19:04;;;;;;;497.55;306.45;;;;;;;;;;4979675;28;20051;-76
2021/05/29 02:21:30;;;;;;;501.85;309.75;;;;;;;;;;4972346;28;20079;-78
2021/05/29 02:23:56;;;;;;;503.92;315.73;;;;;;;;;;4977993;28;20363;-76
2021/05/29 02:26:23;;;;;;;500.00;305.23;;;;;;;;;;4978590;28;20487;-75
2021/05/29 02:28:50;;;;;;;491.85;292.60;;;;;;;;;;4980289;28;20045;-76
2021/05/29 02:31:17;;;;;;;499.10;298.60;;;;;;;;;;4975074;28;20101;-77
2021/05/29 02:33:43;;;;;;;506.52;313.73;;;;;;;;;;4974781;28;20038;-75
2021/05/29 02:36:09;;;;;;;505.27;303.73;;;;;;;;;;4974885;28;20022;-76
2021/05/29 02:38:36;;;;;;;506.23;311.67;;;;;;;;;;4986824;28;20309;-76
2021/05/29 02:41:03;;;;;;;507.02;312.25;;;;;;;;;;4980234;28;20121;-78
2021/05/29 02:43:29;;;;;;;498.35;302.13;;;;;;;;;;4979249;28;20023;-78
2021/05/29 02:45:55;;;;;;;499.55;298.67;;;;;;;;;;4983889;28;20022;-77
2021/05/29 02:48:21;;;;;;;496.45;296.85;;;;;;;;;;4980973;28;20062;-78
2021/05/29 02:50:47;;;;;;;496.95;293.70;;;;;;;;;;4981516;28;20068;-76
2021/05/29 02:53:15;;;;;;;505.50;307.25;;;;;;;;;;4973531;28;20659;-76
2021/05/29 02:55:42;;;;;;;502.10;301.70;;;;;;;;;;4977311;28;20038;-76
2021/05/29 02:58:08;;;;;;;497.02;297.73;;;;;;;;;;4985254;28;20014;-77
2021/05/29 03:00:45;;;;;;;507.23;307.70;;;;;;;;;;4977734;28;20041;-76
2021/05/29 03:03:12;;;;;;;498.77;292.00;;;;;;;;;;4987088;28;20050;-79
2021/05/29 03:05:39;;;;;;;505.27;302.95;;;;;;;;;;4976096;28;20083;-79
2021/05/29 03:08:05;;;;;;;505.48;292.77;;;;;;;;;;4981735;28;20110;-78
2021/05/29 03:10:32;;;;;;;505.70;291.58;;;;;;;;;;4976908;28;20053;-79
2021/05/29 03:12:59;;;;;;;509.13;307.25;;;;;;;;;;4974668;28;20041;-78
2021/05/29 03:15:25;;;;;;;504.27;298.38;;;;;;;;;;4979724;28;20031;-77
2021/05/29 03:17:52;;;;;;;504.15;293.98;;;;;;;;;;4968914;28;20035;-78
2021/05/29 03:20:21;;;;;;;502.20;293.23;;;;;;;;;;4979168;28;20027;-80
2021/05/29 03:22:47;;;;;;;511.35;301.92;;;;;;;;;;4980143;28;20023;-78
2021/05/29 03:25:14;;;;;;;509.83;290.13;;;;;;;;;;4976526;28;20015;-78
2021/05/29 03:27:40;;;;;;;506.75;286.40;;;;;;;;;;4981046;28;20201;-79
2021/05/29 03:30:08;;;;;;;506.13;287.38;;;;;;;;;;4979999;28;20034;-78
2021/05/29 03:32:33;;;;;;;500.85;289.35;;;;;;;;;;4974766;28;20046;-78
2021/05/29 03:35:01;;;;;;;506.65;295.77;;;;;;;;;;4985439;28;20056;-78
2021/05/29 03:37:27;;;;;;;500.80;283.40;;;;;;;;;;4986019;28;20022;-79
2021/05/29 03:39:53;;;;;;;499.27;289.40;;;;;;;;;;4979662;28;20027;-79
2021/05/29 03:42:19;;;;;;;504.77;287.42;;;;;;;;;;4975473;28;20055;-78
2021/05/29 03:44:45;;;;;;;498.25;280.75;;;;;;;;;;4977161;28;20508;-78
2021/05/29 03:47:11;;;;;;;503.38;297.42;;;;;;;;;;4980734;28;20023;-78
2021/05/29 03:49:37;;;;;;;499.63;288.27;;;;;;;;;;4981575;28;20018;-81
2021/05/29 03:52:03;;;;;;;499.50;290.17;;;;;;;;;;4978754;28;20217;-78
2021/05/29 03:54:29;;;;;;;499.42;297.02;;;;;;;;;;4978286;28;20061;-78
2021/05/29 03:56:55;;;;;;;511.70;293.98;;;;;;;;;;4983933;28;20398;-78
2021/05/29 03:59:21;;;;;;;507.75;303.05;;;;;;;;;;4977541;28;20384;-77
2021/05/29 04:01:47;;;;;;;499.90;292.10;;;;;;;;;;4978564;28;20025;-77
2021/05/29 04:04:13;;;;;;;515.50;303.35;;;;;;;;;;4984972;28;20019;-76
2021/05/29 04:06:39;;;;;;;518.30;316.63;;;;;;;;;;4981283;28;20113;-79
2021/05/29 04:09:06;;;;;;;533.35;311.35;;;;;;;;;;4983366;28;20058;-78
2021/05/29 04:11:33;;;;;;;590.15;330.25;;;;;;;;;;4980107;28;20413;-79
2021/05/29 04:13:59;;;;;;;605.15;337.15;;;;;;;;;;4985020;28;20125;-77
2021/05/29 04:16:25;;;;;;;597.78;351.25;;;;;;;;;;4982405;28;20091;-79
2021/05/29 04:18:51;;;;;;;596.85;343.10;;;;;;;;;;4985134;28;20023;-78
2021/05/29 04:21:18;;;;;;;559.90;319.45;;;;;;;;;;5000302;28;20084;-78
2021/05/29 04:23:44;;;;;;;631.78;361.27;;;;;;;;;;4985183;28;20045;-80
2021/05/29 04:26:10;;;;;;;544.78;321.95;;;;;;;;;;5009067;28;20021;-75
2021/05/29 04:28:36;;;;;;;525.05;304.48;;;;;;;;;;4985220;28;20333;-76
2021/05/29 04:31:03;;;;;;;515.10;303.58;;;;;;;;;;4982946;28;20534;-76
2021/05/29 04:33:29;;;;;;;531.72;305.80;;;;;;;;;;5000200;28;20401;-75
2021/05/29 04:35:55;;;;;;;504.13;300.88;;;;;;;;;;4993077;28;20090;-76
2021/05/29 04:38:21;;;;;;;515.90;309.85;;;;;;;;;;4997391;28;20031;-75
2021/05/29 04:40:47;;;;;;;509.13;308.35;;;;;;;;;;4983634;28;20037;-75
2021/05/29 04:43:13;;;;;;;510.42;303.83;;;;;;;;;;5008225;28;20443;-74
2021/05/29 04:45:41;;;;;;;514.50;307.98;;;;;;;;;;4989298;28;20021;-76
2021/05/29 04:48:07;;;;;;;507.98;309.42;;;;;;;;;;4988999;28;20037;-76
2021/05/29 04:51:11;;;;;;;508.85;294.63;;;;;;;;;;4990414;28;20053;-76
2021/05/29 04:53:20;;;;;;;512.67;304.20;;;;;;;;;;4997780;28;20045;-78
2021/05/29 04:55:46;;;;;;;509.50;307.70;;;;;;;;;;4990913;28;20021;-78
2021/05/29 04:58:12;;;;;;;514.75;312.13;;;;;;;;;;4982401;28;20048;-79
2021/05/29 05:00:38;;;;;;;511.10;301.35;;;;;;;;;;5005523;28;20027;-78
2021/05/29 05:03:04;;;;;;;522.08;313.48;;;;;;;;;;4997841;28;20041;-78
2021/05/29 05:05:30;;;;;;;508.05;301.65;;;;;;;;;;4981534;28;20038;-78
2021/05/29 05:07:56;;;;;;;525.50;309.60;;;;;;;;;;4995511;28;20589;-78
2021/05/29 05:10:22;;;;;;;526.00;312.13;;;;;;;;;;4985559;28;20097;-79
2021/05/29 05:12:48;;;;;;;517.85;318.42;;;;;;;;;;4977342;28;20035;-77
2021/05/29 05:15:18;;;;;;;513.72;308.45;;;;;;;;;;4991875;28;20120;-77
2021/05/29 05:17:44;;;;;;;517.92;315.83;;;;;;;;;;4984634;28;20340;-78
2021/05/29 05:20:10;;;;;;;510.88;302.88;;;;;;;;;;4985717;28;20044;-79
2021/05/29 05:22:36;;;;;;;516.00;313.98;;;;;;;;;;4995896;28;20090;-79
2021/05/29 05:25:04;;;;;;;504.77;305.15;;;;;;;;;;4996659;28;20702;-78
2021/05/29 05:27:30;;;;;;;508.27;324.15;;;;;;;;;;4979982;28;20503;-80
2021/05/29 05:29:56;;;;;;;505.88;311.80;;;;;;;;;;4979677;28;20438;-78
2021/05/29 05:32:22;;;;;;;506.40;317.10;;;;;;;;;;4993778;28;20030;-78
2021/05/29 05:34:48;;;;;;;511.63;322.40;;;;;;;;;;4977682;28;20102;-78
2021/05/29 05:37:14;;;;;;;520.22;336.20;;;;;;;;;;4985209;28;20026;-79
2021/05/29 05:39:40;;;;;;;515.95;321.23;;;;;;;;;;4980915;28;20040;-77
2021/05/29 05:42:07;;;;;;;515.90;328.10;;;;;;;;;;4999897;28;20033;-77
2021/05/29 05:44:33;;;;;;;512.90;329.50;;;;;;;;;;4985982;28;20305;-77
2021/05/29 05:46:59;;;;;;;512.08;324.52;;;;;;;;;;4996765;28;20355;-78
2021/05/29 05:49:25;;;;;;;514.97;330.45;;;;;;;;;;4990722;28;20029;-79
2021/05/29 05:51:51;;;;;;;527.17;339.80;;;;;;;;;;4994868;28;20034;-77
2021/05/29 05:54:16;;;;;;;511.08;327.83;;;;;;;;;;4989829;28;20531;-78
2021/05/29 05:56:42;;;;;;;507.92;324.88;;;;;;;;;;4976376;28;20652;-77
2021/05/29 05:59:08;;;;;;;507.25;327.85;;;;;;;;;;5006575;28;20029;-78
2021/05/29 06:01:34;;;;;;;510.92;335.48;;;;;;;;;;4991457;28;20055;-77
2021/05/29 06:04:00;;;;;;;515.35;336.05;;;;;;;;;;4997085;28;20029;-77
2021/05/29 06:06:27;;;;;;;518.30;335.40;;;;;;;;;;4979103;28;20023;-78
2021/05/29 06:08:56;;;;;;;524.30;341.52;;;;;;;;;;4977599;28;20018;-77
2021/05/29 06:11:22;;;;;;;518.20;341.17;;;;;;;;;;4999003;28;20027;-76
2021/05/29 06:21:26;;;;;;;502.30;332.35;;;;;;;;;;5000394;28;20108;-78
2021/05/29 06:23:52;;;;;;;505.55;335.90;;;;;;;;;;4997976;28;20147;-77
2021/05/29 06:26:18;;;;;;;502.63;344.05;;;;;;;;;;4977892;28;20109;-78
2021/05/29 06:28:45;;;;;;;515.25;343.67;;;;;;;;;;4986403;28;20026;-76
2021/05/29 06:31:11;;;;;;;589.08;390.23;;;;;;;;;;4985367;28;20018;-78
2021/05/29 06:33:37;;;;;;;575.17;383.88;;;;;;;;;;4980051;28;20042;-77
2021/05/29 06:36:03;;;;;;;541.45;371.25;;;;;;;;;;4996342;28;20018;-77
2021/05/29 06:38:29;;;;;;;507.60;344.63;;;;;;;;;;4986574;28;20041;-75
2021/05/29 06:40:55;;;;;;;507.90;348.08;;;;;;;;;;4980911;28;20026;-77
2021/05/29 06:43:21;;;;;;;516.17;348.17;;;;;;;;;;4987820;28;20018;-75
2021/05/29 06:45:47;;;;;;;524.33;355.50;;;;;;;;;;4994443;28;20022;-76
2021/05/29 06:48:15;;;;;;;524.97;353.65;;;;;;;;;;5005123;28;20029;-74
2021/05/29 06:50:47;;;;;;;545.90;374.67;;;;;;;;;;4993010;28;20087;-77
2021/05/29 06:53:17;;;;;;;514.30;346.60;;;;;;;;;;4992566;28;20106;-77
2021/05/29 07:01:13;;;;;;;517.63;351.80;;;;;;;;;;4997687;28;20041;-78
2021/05/29 07:03:39;;;;;;;506.23;352.55;;;;;;;;;;4978928;28;20030;-78
2021/05/29 07:06:05;;;;;;;529.13;363.08;;;;;;;;;;4979683;28;20027;-77
2021/05/29 07:08:31;;;;;;;538.13;368.45;;;;;;;;;;4976662;28;20037;-78
2021/05/29 07:10:57;;;;;;;524.80;360.63;;;;;;;;;;5001462;28;20461;-79
2021/05/29 07:13:23;;;;;;;519.17;365.73;;;;;;;;;;4991415;28;20090;-79
2021/05/29 07:15:49;;;;;;;568.55;406.17;;;;;;;;;;4987220;28;20339;-76
2021/05/29 07:18:16;;;;;;;535.45;378.48;;;;;;;;;;4996663;28;20037;-78
2021/05/29 07:20:42;;;;;;;543.53;383.13;;;;;;;;;;4980109;28;20053;-76
2021/05/29 07:23:09;;;;;;;519.63;363.77;;;;;;;;;;4984963;28;20038;-77
2021/05/29 07:25:36;;;;;;;579.60;406.88;;;;;;;;;;4987785;28;20027;-77
2021/05/29 07:28:02;;;;;;;521.17;368.35;;;;;;;;;;4979865;28;20022;-76
2021/05/29 07:30:28;;;;;;;507.73;361.88;;;;;;;;;;4982885;28;20026;-77
2021/05/29 07:32:54;;;;;;;494.52;354.27;;;;;;;;;;4982326;28;20497;-79
2021/05/29 07:35:21;;;;;;;487.40;354.70;;;;;;;;;;4976388;28;20061;-76
2021/05/29 07:37:47;;;;;;;488.90;356.90;;;;;;;;;;4995276;28;20010;-77
2021/05/29 07:40:13;;;;;;;487.95;353.95;;;;;;;;;;4984148;28;20456;-77
2021/05/29 07:42:40;;;;;;;483.05;346.35;;;;;;;;;;4978500;28;20018;-78
2021/05/29 07:45:07;;;;;;;482.63;351.98;;;;;;;;;;4976667;28;20019;-77
2021/05/29 07:47:33;;;;;;;482.00;355.27;;;;;;;;;;4982421;28;20442;-77
2021/05/29 07:49:59;;;;;;;480.58;358.98;;;;;;;;;;4999918;28;20083;-77
2021/05/29 07:52:25;;;;;;;482.85;363.25;;;;;;;;;;4977463;28;20046;-77
2021/05/29 07:54:51;;;;;;;483.10;366.38;;;;;;;;;;4987775;28;20030;-77
2021/05/29 07:57:17;;;;;;;483.15;362.70;;;;;;;;;;4987855;28;20624;-77
2021/05/29 07:59:45;;;;;;;479.00;362.83;;;;;;;;;;4982761;28;20444;-77
2021/05/29 08:02:13;;;;;;;483.88;375.10;;;;;;;;;;4993804;28;20014;-77
2021/05/29 08:04:40;;;;;;;481.98;370.15;;;;;;;;;;4977229;28;20437;-77
2021/05/29 08:07:06;;;;;;;490.00;375.58;;;;;;;;;;4997150;28;20037;-80
2021/05/29 08:09:32;;;;;;;483.15;371.63;;;;;;;;;;4976873;28;20451;-79
2021/05/29 08:11:58;;;;;;;484.58;372.20;;;;;;;;;;4980738;28;20033;-78
2021/05/29 08:14:25;;;;;;;478.75;363.92;;;;;;;;;;4982325;28;20027;-77
2021/05/29 08:16:51;;;;;;;480.13;365.77;;;;;;;;;;4980072;28;20045;-78
2021/05/29 08:19:18;;;;;;;479.67;364.75;;;;;;;;;;4989799;28;20025;-78
2021/05/29 08:21:50;;;;;;;482.65;368.02;;;;;;;;;;5026971;28;20061;-78
2021/05/29 08:24:16;;;;;;;477.63;364.13;;;;;;;;;;4992965;28;20581;-79
2021/05/29 08:26:42;;;;;;;485.90;374.55;;;;;;;;;;4979753;28;20029;-78
2021/05/29 08:29:13;;;;;;;483.88;375.00;;;;;;;;;;4977760;28;20026;-79
2021/05/29 08:31:42;;;;;;;480.60;372.13;;;;;;;;;;4975420;28;20038;-77
2021/05/29 08:34:09;;;;;;;482.45;377.67;;;;;;;;;;4993437;28;20045;-77
2021/05/29 08:36:35;;;;;;;489.10;384.30;;;;;;;;;;4975234;28;20510;-78
2021/05/29 08:39:01;;;;;;;487.38;383.45;;;;;;;;;;4984569;28;20034;-78
2021/05/29 08:41:27;;;;;;;488.90;387.63;;;;;;;;;;5001502;28;20432;-78
2021/05/29 08:43:53;;;;;;;486.23;384.60;;;;;;;;;;4980772;28;20022;-77
2021/05/29 08:46:19;;;;;;;485.95;386.30;;;;;;;;;;4980554;28;20033;-77
2021/05/29 08:48:45;;;;;;;483.92;381.38;;;;;;;;;;4985636;28;20049;-78
2021/05/29 08:51:15;;;;;;;487.30;383.88;;;;;;;;;;4984782;28;20095;-79
2021/05/29 08:53:45;;;;;;;486.13;379.80;;;;;;;;;;4981869;28;20034;-77
2021/05/29 08:56:11;;;;;;;486.60;383.98;;;;;;;;;;4986358;28;20021;-79
2021/05/29 08:58:37;;;;;;;490.00;384.77;;;;;;;;;;4997167;28;20052;-80
2021/05/29 09:01:04;;;;;;;486.55;380.35;;;;;;;;;;4989726;28;20108;-77
2021/05/29 09:03:41;;;;;;;486.80;379.25;;;;;;;;;;4989407;28;20211;-78
2021/05/29 09:06:07;;;;;;;488.30;379.55;;;;;;;;;;4977835;28;20026;-78
2021/05/29 09:08:33;;;;;;;492.65;384.65;;;;;;;;;;4979705;28;20022;-78
2021/05/29 09:11:00;;;;;;;487.10;377.23;;;;;;;;;;4990080;28;20470;-78
2021/05/29 09:13:27;;;;;;;490.77;383.45;;;;;;;;;;4983095;28;20034;-77
2021/05/29 09:15:58;;;;;;;489.58;382.38;;;;;;;;;;4989256;28;20018;-78
2021/05/29 09:18:28;;;;;;;492.23;383.92;;;;;;;;;;5001382;28;20035;-78
2021/05/29 09:20:54;;;;;;;;;;;;;;;;;;4984916;28;20045;-79
2021/05/29 09:23:20;;;;;;;491.00;376.35;;;;;;;;;;5007344;28;20380;-78
2021/05/29 09:25:54;;;;;;;496.60;390.20;;;;;;;;;;4984274;28;20030;-80
2021/05/29 09:28:24;;;;;;;500.13;392.20;;;;;;;;;;4980887;28;20049;-78
2021/05/29 09:30:51;;;;;;;508.20;401.40;;;;;;;;;;4979774;28;20029;-79
2021/05/29 09:33:21;;;;;;;521.35;404.23;;;;;;;;;;4990412;28;20096;-78
2021/05/29 09:35:54;;;;;;;695.30;555.45;;;;;;;;;;4985927;28;20109;-78
2021/05/29 09:38:20;;;;;;;545.80;424.60;;;;;;;;;;4980304;28;20048;-78
2021/05/29 09:40:50;;;;;;;530.47;407.60;;;;;;;;;;4985108;28;20034;-79
2021/05/29 09:43:17;;;;;;;514.13;394.60;;;;;;;;;;4981519;28;20026;-77
2021/05/29 09:45:43;;;;;;;512.85;399.00;;;;;;;;;;4995286;28;20432;-78
2021/05/29 09:48:10;;;;;;;508.27;400.80;;;;;;;;;;4985316;28;20660;-78
2021/05/29 09:50:36;;;;;;;508.27;410.23;;;;;;;;;;4980040;28;20058;-80
2021/05/29 09:53:03;;;;;;;509.70;416.10;;;;;;;;;;4982303;28;20030;-78
2021/05/29 09:55:39;;;;;;;509.10;411.42;;;;;;;;;;4983739;28;20022;-79
2021/05/29 09:58:05;;;;;;;510.98;421.55;;;;;;;;;;4986144;28;20018;-79
2021/05/29 10:00:41;;;;;;;509.02;417.67;;;;;;;;;;4981745;28;20075;-79
2021/05/29 10:03:08;;;;;;;508.90;412.80;;;;;;;;;;4980374;28;20041;-78
2021/05/29 10:05:38;;;;;;;512.47;414.95;;;;;;;;;;4989095;28;20031;-79
2021/05/29 10:08:04;;;;;;;;;;;;;;;;;;4986837;28;20370;-78
2021/05/29 10:10:30;;;;;;;510.23;392.52;;;;;;;;;;4982115;28;19974;-81
2021/05/29 10:12:57;;;;;;;530.55;419.23;;;;;;;;;;4980562;28;20081;-79
2021/05/29 10:15:24;;;;;;;513.50;408.75;;;;;;;;;;4980333;28;20099;-80
2021/05/29 10:17:51;;;;;;;508.63;405.05;;;;;;;;;;4978867;28;20052;-79
2021/05/29 10:20:17;;;;;;;505.73;403.55;;;;;;;;;;4996132;28;20034;-79
2021/05/29 10:22:46;;;;;;;513.03;417.13;;;;;;;;;;4978195;28;20042;-78
2021/05/29 10:25:14;;;;;;;506.98;413.38;;;;;;;;;;4984928;28;20125;-80
2021/05/29 10:27:44;;;;;;;507.75;422.17;;;;;;;;;;4980092;28;20027;-80
2021/05/29 10:30:10;;;;;;;505.90;419.05;;;;;;;;;;4980647;28;20018;-79
2021/05/29 10:32:36;;;;;;;498.00;416.13;;;;;;;;;;4973707;28;20045;-80
2021/05/29 10:35:05;;;;;;;507.30;428.98;;;;;;;;;;4972353;28;20031;-78
2021/05/29 10:37:36;;;;;;;503.13;422.10;;;;;;;;;;4977801;28;20419;-78
2021/05/29 10:40:22;;;;;;;506.20;423.65;;;;;;;;;;4979170;28;20421;-79
2021/05/29 10:43:11;;;;;;;509.15;422.65;;;;;;;;;;4972646;28;20034;-80
2021/05/29 10:45:38;;;;;;;509.65;423.20;;;;;;;;;;4974437;28;20034;-79
2021/05/29 10:48:09;;;;;;;505.83;419.15;;;;;;;;;;4973424;28;20034;-79
2021/05/29 10:53:48;;;;;;;507.30;430.98;;;;;;;;;;4999118;28;21058;-80
2021/05/29 10:56:17;;;;;;;516.72;459.50;;;;;;;;;;4974863;28;20412;-78
2021/05/29 10:59:05;;;;;;;534.83;477.90;;;;;;;;;;4972335;28;20034;-81
2021/05/29 11:01:31;;;;;;;531.92;475.40;;;;;;;;;;4987310;28;20033;-79
2021/05/29 11:04:15;;;;;;;533.90;476.67;;;;;;;;;;4974387;28;20069;-82
2021/05/29 11:06:42;;;;;;;531.33;474.65;;;;;;;;;;4975957;28;20038;-79
2021/05/29 11:09:12;;;;;;;539.58;482.63;;;;;;;;;;4969076;28;20046;-82
2021/05/29 11:14:14;;;;;;;536.67;480.00;;;;;;;;;;4987380;28;20647;-82
2021/05/29 11:16:53;;;;;;;534.58;477.65;;;;;;;;;;4968002;28;20683;-80
2021/05/29 11:19:23;;;;;;;521.55;464.65;;;;;;;;;;4976701;28;20030;-83
2021/05/29 11:22:09;;;;;;;525.65;468.65;;;;;;;;;;4980470;28;20030;-83
2021/05/29 11:24:53;;;;;;;521.10;464.42;;;;;;;;;;4967753;28;20456;-85
2021/05/29 11:27:27;;;;;;;521.20;464.35;;;;;;;;;;4979299;28;20045;-81
2021/05/29 11:30:02;;;;;;;523.13;466.38;;;;;;;;;;4982296;28;20060;-81
2021/05/29 11:32:59;;;;;;;532.15;475.05;;;;;;;;;;4976178;28;20072;-84
2021/05/29 11:35:25;;;;;;;522.97;466.05;;;;;;;;;;4978497;28;20510;-84
2021/05/29 11:38:16;;;;;;;533.55;475.80;;;;;;;;;;4987625;28;20103;-81
2021/05/29 11:40:41;;;;;;;;;;;;;;;;;;4981029;28;20456;-82
2021/05/29 11:43:10;;;;;;;525.90;468.02;;;;;;;;;;4976871;28;19905;-82
2021/05/29 11:45:37;;;;;;;550.33;491.08;;;;;;;;;;4985506;28;20388;-80
2021/05/29 11:48:04;;;;;;;633.10;567.08;;;;;;;;;;4979201;28;20666;-80
2021/05/29 11:50:29;;;;;;;567.15;508.02;;;;;;;;;;4982923;28;20088;-81
2021/05/29 11:52:59;;;;;;;539.65;482.05;;;;;;;;;;4986495;28;20033;-82
2021/05/29 11:55:25;;;;;;;533.95;476.67;;;;;;;;;;4976900;28;20036;-82
2021/05/29 11:58:01;;;;;;;553.90;496.00;;;;;;;;;;4974735;28;20407;-82
2021/05/29 12:00:28;;;;;;;575.53;516.65;;;;;;;;;;4979279;28;20029;-82
2021/05/29 12:02:54;;;;;;;572.53;514.28;;;;;;;;;;4981772;28;20023;-81
2021/05/29 12:05:21;;;;;;;558.05;500.40;;;;;;;;;;4974366;28;20114;-81
2021/05/29 12:07:58;;;;;;;557.17;499.13;;;;;;;;;;4978065;28;20029;-82
2021/05/29 12:10:24;;;;;;;568.65;510.58;;;;;;;;;;4976027;28;20026;-80
2021/05/29 12:12:52;;;;;;;605.47;546.40;;;;;;;;;;4982329;28;20352;-82
2021/05/29 12:15:18;;;;;;;618.33;559.00;;;;;;;;;;4982372;28;20624;-82
2021/05/29 12:17:45;;;;;;;600.53;542.15;;;;;;;;;;4982783;28;20034;-82
2021/05/29 12:20:11;;;;;;;613.58;553.60;;;;;;;;;;4976602;28;20348;-82
2021/05/29 12:22:41;;;;;;;615.55;556.35;;;;;;;;;;4979279;28;20054;-81
2021/05/29 12:25:11;;;;;;;640.03;580.03;;;;;;;;;;4982051;28;20057;-83
2021/05/29 12:27:43;;;;;;;735.30;669.28;;;;;;;;;;4979533;28;20031;-81
2021/05/29 12:30:14;;;;;;;654.03;592.90;;;;;;;;;;4983807;28;20036;-81
2021/05/29 12:33:23;;;;;;;617.97;558.35;;;;;;;;;;4980389;28;20475;-81
2021/05/29 12:36:11;;;;;;;613.55;554.72;;;;;;;;;;4961495;28;20468;-81
2021/05/29 12:39:00;;;;;;;614.92;555.85;;;;;;;;;;4981847;28;20030;-82
2021/05/29 12:41:35;;;;;;;628.17;568.13;;;;;;;;;;4981669;28;20088;-83
2021/05/29 12:44:09;;;;;;;610.42;550.53;;;;;;;;;;4979628;28;20033;-83
2021/05/29 12:46:39;;;;;;;607.42;546.83;;;;;;;;;;4979112;28;20079;-83
2021/05/29 12:49:05;;;;;;;;;;;;;;;;;;4982436;28;20023;-82
2021/05/29 12:51:58;;;;;;;575.80;516.80;;;;;;;;;;4983529;28;20490;-82
2021/05/29 12:54:50;;;;;;;606.22;546.42;;;;;;;;;;4982303;28;20511;-82
2021/05/29 12:57:18;;;;;;;633.15;571.80;;;;;;;;;;4980295;28;20038;-83
2021/05/29 12:59:44;;;;;;;646.13;585.70;;;;;;;;;;4981396;28;20042;-82
2021/05/29 13:02:34;;;;;;;656.00;595.50;;;;;;;;;;4975960;28;20018;-83
2021/05/29 13:08:09;;;;;;;645.10;585.42;;;;;;;;;;4995996;28;20127;-83
2021/05/29 13:10:40;;;;;;;649.03;588.50;;;;;;;;;;4989627;28;20049;-82
2021/05/29 13:13:08;;;;;;;662.70;601.50;;;;;;;;;;4982139;28;20038;-82
2021/05/29 13:15:38;;;;;;;679.75;618.42;;;;;;;;;;4989218;28;20021;-86
2021/05/29 13:18:15;;;;;;;676.58;615.33;;;;;;;;;;4984320;28;20076;-83
2021/05/29 13:20:44;;;;;;;651.15;590.97;;;;;;;;;;4983607;28;20113;-83
2021/05/29 13:23:12;;;;;;;646.83;587.40;;;;;;;;;;4984896;28;20022;-81
2021/05/29 13:25:58;;;;;;;643.60;584.80;;;;;;;;;;4990954;28;20045;-84
2021/05/29 13:28:30;;;;;;;645.17;585.17;;;;;;;;;;4979047;28;20443;-83
2021/05/29 13:30:59;;;;;;;650.58;590.42;;;;;;;;;;4995141;28;20111;-83
2021/05/29 13:33:35;;;;;;;631.77;573.03;;;;;;;;;;4988378;28;20129;-82
2021/05/29 13:36:01;;;;;;;644.30;585.10;;;;;;;;;;4977077;28;20022;-83
2021/05/29 13:38:29;;;;;;;643.20;584.22;;;;;;;;;;4987050;28;20091;-82
2021/05/29 13:40:57;;;;;;;656.83;597.42;;;;;;;;;;4981667;28;20129;-84
2021/05/29 13:43:30;;;;;;;635.00;576.30;;;;;;;;;;4982179;28;20525;-83
2021/05/29 13:46:07;;;;;;;616.83;558.45;;;;;;;;;;4981190;28;20030;-83
2021/05/29 13:51:55;;;;;;;;;;;;;;;;;;;;;
2021/05/29 13:57:51;;;;;;;640.28;580.63;;;;;;;;;;4982905;28;20391;-87
2021/05/29 14:00:50;;;;;;;640.78;581.55;;;;;;;;;;4981671;28;20053;-84
2021/05/29 14:03:44;;;;;;;652.50;592.85;;;;;;;;;;4992705;28;20064;-85
2021/05/29 14:06:10;;;;;;;639.78;580.63;;;;;;;;;;4984984;28;20030;-83
2021/05/29 14:08:36;;;;;;;635.55;576.10;;;;;;;;;;4997462;28;20034;-82
2021/05/29 14:11:06;;;;;;;598.92;540.30;;;;;;;;;;4979732;28;20399;-83
2021/05/29 14:13:32;;;;;;;;;;;;;;;;;;4994883;28;20030;-81
2021/05/29 14:16:16;;;;;;;587.10;528.17;;;;;;;;;;4982141;28;19924;-83
2021/05/29 14:18:43;;;;;;;585.85;526.22;;;;;;;;;;4981711;28;20026;-83
2021/05/29 14:21:30;;;;;;;589.42;529.05;;;;;;;;;;4998057;28;20046;-83
2021/05/29 14:24:01;;;;;;;578.78;519.53;;;;;;;;;;4979434;28;20027;-83
2021/05/29 14:26:31;;;;;;;576.42;517.80;;;;;;;;;;4983188;28;20471;-82
2021/05/29 14:29:00;;;;;;;568.40;509.98;;;;;;;;;;4979610;28;20050;-83
2021/05/29 14:31:26;;;;;;;583.67;524.22;;;;;;;;;;4981162;28;20034;-82
2021/05/29 14:33:56;;;;;;;587.13;527.47;;;;;;;;;;4989052;28;20079;-82